createdAt,value
2017-12-06T00:01:32.488Z,97182.05
2017-12-06T00:03:59.971Z,97178.65
2017-12-06T00:06:27.440Z,97179.66
2017-12-06T00:08:54.942Z,97182.01
2017-12-06T00:11:22.431Z,97176.28
2017-12-06T00:13:55.701Z,97180.83
2017-12-06T00:16:23.190Z,97184.23
2017-12-06T00:18:50.656Z,97188.06
2017-12-06T00:21:18.125Z,97183.59
2017-12-06T00:23:45.604Z,97189.38
2017-12-06T00:26:13.073Z,97187.97
2017-12-06T00:28:40.537Z,97182.88
2017-12-06T00:31:08.021Z,97179.38
2017-12-06T00:33:35.481Z,97180.17
2017-12-06T00:36:02.945Z,97180.84
2017-12-06T00:38:30.424Z,97181.83
2017-12-06T00:40:57.896Z,97178.08
2017-12-06T00:43:25.380Z,97176.44
2017-12-06T00:45:52.845Z,97174.77
2017-12-06T00:48:20.333Z,97173.90
2017-12-06T00:50:47.801Z,97174.95
2017-12-06T00:53:15.285Z,97175.38
2017-12-06T00:55:42.749Z,97176.22
2017-12-06T00:58:10.237Z,97179.19
2017-12-06T01:00:45.213Z,97177.45
2017-12-06T01:03:12.700Z,97184.74
2017-12-06T01:05:40.163Z,97179.19
2017-12-06T01:08:07.640Z,97180.17
2017-12-06T01:10:35.110Z,97184.80
2017-12-06T01:13:02.592Z,97183.41
2017-12-06T01:15:30.056Z,97183.33
2017-12-06T01:17:57.516Z,97176.73
2017-12-06T01:20:25.001Z,97183.52
2017-12-06T01:22:52.469Z,97180.81
2017-12-06T01:25:19.932Z,97186.45
2017-12-06T01:27:47.421Z,97184.52
2017-12-06T01:30:14.884Z,97184.17
2017-12-06T01:32:42.349Z,97180.05
2017-12-06T01:35:09.837Z,97184.57
2017-12-06T01:37:37.309Z,97182.64
2017-12-06T01:40:04.773Z,97178.44
2017-12-06T01:42:32.260Z,97182.69
2017-12-06T01:44:59.729Z,97188.59
2017-12-06T01:47:27.216Z,97185.21
2017-12-06T01:49:54.685Z,97183.05
2017-12-06T01:52:22.169Z,97181.86
2017-12-06T01:54:49.644Z,97182.23
2017-12-06T01:57:17.118Z,97171.69
2017-12-06T01:59:44.616Z,97173.38
2017-12-06T02:02:12.081Z,97173.89
2017-12-06T02:04:39.556Z,97163.84
2017-12-06T02:07:07.234Z,97165.31
2017-12-06T02:09:34.696Z,97156.94
2017-12-06T02:12:02.176Z,97156.23
2017-12-06T02:14:29.745Z,97157.53
2017-12-06T02:16:57.308Z,97150.42
2017-12-06T02:19:24.789Z,97149.58
2017-12-06T02:21:52.253Z,97145.14
2017-12-06T02:24:19.725Z,97144.36
2017-12-06T02:26:47.211Z,97133.55
2017-12-06T02:29:14.677Z,97130.06
2017-12-06T02:31:42.144Z,97132.91
2017-12-06T02:34:09.624Z,97135.09
2017-12-06T02:36:37.085Z,97128.92
2017-12-06T02:39:04.557Z,97133.45
2017-12-06T02:41:43.866Z,97132.14
2017-12-06T02:44:23.113Z,97127.95
2017-12-06T02:46:50.592Z,97127.05
2017-12-06T02:49:18.057Z,97118.73
2017-12-06T02:51:45.531Z,97123.84
2017-12-06T02:54:13.021Z,97127.63
2017-12-06T02:56:40.512Z,97123.45
2017-12-06T02:59:07.981Z,97124.24
2017-12-06T03:01:35.476Z,97121.01
2017-12-06T03:04:02.944Z,97127.69
2017-12-06T03:06:30.433Z,97123.09
2017-12-06T03:08:57.905Z,97124.73
2017-12-06T03:11:25.390Z,97121.81
2017-12-06T03:13:52.861Z,97131.81
2017-12-06T03:16:20.325Z,97117.25
2017-12-06T03:18:47.809Z,97123.91
2017-12-06T03:21:15.321Z,97121.06
2017-12-06T03:23:42.816Z,97123.09
2017-12-06T03:26:10.300Z,97116.88
2017-12-06T03:28:37.765Z,97116.02
2017-12-06T03:31:05.307Z,97123.11
2017-12-06T03:33:32.739Z,97125.65
2017-12-06T03:36:00.270Z,97125.55
2017-12-06T03:38:27.744Z,97121.05
2017-12-06T03:40:55.229Z,97124.78
2017-12-06T03:43:22.701Z,97126.01
2017-12-06T03:45:50.184Z,97127.23
2017-12-06T03:48:17.648Z,97122.24
2017-12-06T03:50:45.128Z,97122.63
2017-12-06T03:53:12.593Z,97126.06
2017-12-06T03:55:40.072Z,97126.47
2017-12-06T03:58:07.536Z,97126.94
2017-12-06T04:00:35.021Z,97125.28
2017-12-06T04:03:02.486Z,97118.60
2017-12-06T04:05:29.969Z,97117.34
2017-12-06T04:07:57.432Z,97114.43
2017-12-06T04:10:24.916Z,97116.92
2017-12-06T04:12:52.376Z,97113.27
2017-12-06T04:15:19.852Z,97114.10
2017-12-06T04:17:47.321Z,97111.16
2017-12-06T04:20:14.806Z,97116.12
2017-12-06T04:22:42.277Z,97118.67
2017-12-06T04:25:09.760Z,97112.88
2017-12-06T04:27:37.224Z,97114.96
2017-12-06T04:30:04.705Z,97120.73
2017-12-06T04:32:32.168Z,97113.77
2017-12-06T04:34:59.632Z,97110.70
2017-12-06T04:37:27.112Z,97116.38
2017-12-06T04:39:54.581Z,97106.75
2017-12-06T04:42:22.044Z,97115.16
2017-12-06T04:44:49.528Z,97112.22
2017-12-06T04:47:16.993Z,97114.75
2017-12-06T04:49:44.458Z,97110.72
2017-12-06T04:52:11.945Z,97109.86
2017-12-06T04:54:39.415Z,97109.91
2017-12-06T04:57:06.880Z,97109.27
2017-12-06T04:59:34.361Z,97116.83
2017-12-06T05:02:01.829Z,97117.01
2017-12-06T05:04:29.343Z,97116.53
2017-12-06T05:06:56.902Z,97112.00
2017-12-06T05:09:24.381Z,97121.20
2017-12-06T05:11:51.853Z,97116.98
2017-12-06T05:14:19.337Z,97116.95
2017-12-06T05:16:46.801Z,97112.75
2017-12-06T05:19:14.275Z,97115.77
2017-12-06T05:21:41.853Z,97115.27
2017-12-06T05:24:09.321Z,97121.14
2017-12-06T05:26:36.820Z,97121.60
2017-12-06T05:29:04.307Z,97115.78
2017-12-06T05:31:31.772Z,97112.45
2017-12-06T05:33:59.240Z,97114.05
2017-12-06T05:36:26.721Z,97109.42
2017-12-06T05:38:54.189Z,97117.31
2017-12-06T05:41:21.689Z,97124.77
2017-12-06T05:43:49.165Z,97123.19
2017-12-06T05:46:16.653Z,97117.78
2017-12-06T05:48:44.116Z,97115.22
2017-12-06T05:51:11.600Z,97117.67
2017-12-06T05:53:39.064Z,97118.17
2017-12-06T05:56:06.558Z,97120.17
2017-12-06T05:58:34.020Z,97111.45
2017-12-06T06:01:01.496Z,97118.16
2017-12-06T06:03:28.957Z,97111.84
2017-12-06T06:05:56.441Z,97111.03
2017-12-06T06:08:23.904Z,97113.94
2017-12-06T06:10:51.388Z,97101.03
2017-12-06T06:13:18.852Z,97106.08
2017-12-06T06:15:46.316Z,97106.39
2017-12-06T06:18:13.802Z,97103.16
2017-12-06T06:20:41.269Z,97101.95
2017-12-06T06:23:08.737Z,97108.19
2017-12-06T06:25:36.223Z,97110.72
2017-12-06T06:28:03.693Z,97111.95
2017-12-06T06:30:31.177Z,97108.17
2017-12-06T06:32:58.647Z,97106.10
2017-12-06T06:35:26.148Z,97112.20
2017-12-06T06:37:53.616Z,97116.47
2017-12-06T06:40:21.122Z,97113.05
2017-12-06T06:42:48.626Z,97117.20
2017-12-06T06:45:16.120Z,97114.31
2017-12-06T06:47:43.602Z,97114.34
2017-12-06T06:50:11.069Z,97120.59
2017-12-06T06:52:38.558Z,97115.55
2017-12-06T06:55:06.029Z,97118.48
2017-12-06T06:57:33.501Z,97114.75
2017-12-06T07:00:00.991Z,97115.61
2017-12-06T07:02:28.453Z,97119.84
2017-12-06T07:04:55.918Z,97116.45
2017-12-06T07:07:23.401Z,97116.83
2017-12-06T07:09:50.877Z,97108.93
2017-12-06T07:12:18.345Z,97103.91
2017-12-06T07:14:45.836Z,97103.78
2017-12-06T07:17:13.300Z,97111.41
2017-12-06T07:19:56.457Z,97112.59
2017-12-06T07:22:23.936Z,97116.64
2017-12-06T07:24:51.489Z,97116.61
2017-12-06T07:27:18.957Z,97117.47
2017-12-06T07:29:46.440Z,97112.95
2017-12-06T07:32:14.089Z,97119.41
2017-12-06T07:34:41.603Z,97115.28
2017-12-06T07:37:09.060Z,97114.19
2017-12-06T07:39:36.524Z,97119.26
2017-12-06T07:42:03.988Z,97122.46
2017-12-06T07:44:31.861Z,97121.72
2017-12-06T07:46:59.330Z,97117.03
2017-12-06T07:49:26.796Z,97124.50
2017-12-06T07:51:54.276Z,97118.85
2017-12-06T07:54:21.761Z,97115.59
2017-12-06T07:56:49.227Z,97123.34
2017-12-06T07:59:16.712Z,97124.04
2017-12-06T08:01:44.182Z,97129.34
2017-12-06T08:04:11.667Z,97122.43
2017-12-06T08:06:39.132Z,97122.29
2017-12-06T08:09:06.613Z,97118.38
2017-12-06T08:11:34.085Z,97122.94
2017-12-06T08:14:01.573Z,97120.14
2017-12-06T08:16:29.041Z,97121.30
2017-12-06T08:18:56.512Z,97124.62
2017-12-06T08:21:24.000Z,97129.64
2017-12-06T08:23:51.462Z,97132.82
2017-12-06T08:26:18.934Z,97133.34
2017-12-06T08:28:46.519Z,97127.06
2017-12-06T08:31:13.986Z,97123.00
2017-12-06T08:33:41.457Z,97127.84
2017-12-06T08:36:08.943Z,97124.63
2017-12-06T08:38:36.411Z,97121.67
2017-12-06T08:41:03.906Z,97112.48
2017-12-06T08:43:31.376Z,97114.98
2017-12-06T08:45:58.864Z,97115.69
2017-12-06T08:48:26.333Z,97111.34
2017-12-06T08:50:53.817Z,97111.69
2017-12-06T08:53:20.816Z,97114.35
2017-12-06T08:55:47.832Z,97112.10
2017-12-06T08:58:14.832Z,97117.72
2017-12-06T09:00:41.852Z,97119.28
2017-12-06T09:03:08.852Z,97120.09
2017-12-06T09:05:35.868Z,97123.41
2017-12-06T09:08:02.868Z,97120.42
2017-12-06T09:10:29.889Z,97125.50
2017-12-06T09:12:56.911Z,97112.02
2017-12-06T09:15:23.936Z,97109.36
2017-12-06T09:17:50.952Z,97118.19
2017-12-06T09:20:17.962Z,97115.75
2017-12-06T09:22:44.992Z,97128.03
2017-12-06T09:25:11.991Z,97122.47
2017-12-06T09:27:39.024Z,97120.22
2017-12-06T09:30:06.028Z,97119.93
2017-12-06T09:32:33.057Z,97115.48
2017-12-06T09:35:00.059Z,97120.88
2017-12-06T09:37:27.092Z,97115.72
2017-12-06T09:39:54.099Z,97116.50
2017-12-06T09:42:21.116Z,97111.58
2017-12-06T09:44:48.116Z,97107.31
2017-12-06T09:47:15.120Z,97117.25
2017-12-06T09:49:42.148Z,97107.39
2017-12-06T09:52:09.154Z,97111.76
2017-12-06T09:54:36.155Z,97112.59
2017-12-06T09:57:03.184Z,97110.13
2017-12-06T09:59:30.179Z,97110.00
2017-12-06T10:01:57.205Z,97107.58
2017-12-06T10:04:24.223Z,97096.33
2017-12-06T10:06:51.224Z,97100.55
2017-12-06T10:09:18.228Z,97094.84
2017-12-06T10:11:45.248Z,97095.13
2017-12-06T10:14:12.244Z,97099.20
2017-12-06T10:16:39.290Z,97101.07
2017-12-06T10:19:06.287Z,97097.72
2017-12-06T10:21:33.313Z,97090.73
2017-12-06T10:24:00.316Z,97093.12
2017-12-06T10:26:27.339Z,97093.08
2017-12-06T10:28:54.346Z,97089.73
2017-12-06T10:31:21.360Z,97089.48
2017-12-06T10:33:48.360Z,97088.66
2017-12-06T10:36:15.385Z,97089.23
2017-12-06T10:38:42.384Z,97082.57
2017-12-06T10:41:09.409Z,97080.45
2017-12-06T10:43:36.411Z,97082.54
2017-12-06T10:46:03.432Z,97079.63
2017-12-06T10:48:30.432Z,97074.70
2017-12-06T10:50:57.547Z,97073.13
2017-12-06T10:53:24.548Z,97082.68
2017-12-06T10:55:51.580Z,97076.67
2017-12-06T10:58:18.632Z,97078.46
2017-12-06T11:00:45.600Z,97069.75
2017-12-06T11:03:12.637Z,97068.18
2017-12-06T11:05:39.646Z,97066.53
2017-12-06T11:08:06.696Z,97067.14
2017-12-06T11:10:33.704Z,97051.16
2017-12-06T11:13:00.708Z,97052.66
2017-12-06T11:15:27.724Z,97053.06
2017-12-06T11:17:54.732Z,97051.02
2017-12-06T11:20:21.788Z,97046.19
2017-12-06T11:22:48.792Z,97043.91
2017-12-06T11:25:15.814Z,97042.24
2017-12-06T11:27:42.812Z,97041.13
2017-12-06T11:30:09.837Z,97041.35
2017-12-06T11:32:36.836Z,97031.82
2017-12-06T11:35:03.832Z,97034.65
2017-12-06T11:37:30.852Z,97037.00
2017-12-06T11:39:57.855Z,97034.61
2017-12-06T11:42:24.852Z,97028.68
2017-12-06T11:44:51.868Z,97032.64
2017-12-06T11:47:18.871Z,97041.16
2017-12-06T11:49:45.876Z,97034.30
2017-12-06T11:52:12.896Z,97031.73
2017-12-06T11:54:39.900Z,97031.42
2017-12-06T11:57:06.901Z,97030.55
2017-12-06T11:59:33.919Z,97027.51
2017-12-06T12:02:00.956Z,97026.41
2017-12-06T12:04:27.976Z,97031.62
2017-12-06T12:06:54.980Z,97025.62
2017-12-06T12:09:21.992Z,97019.17
2017-12-06T12:11:49.044Z,97021.06
2017-12-06T12:14:16.075Z,97021.16
2017-12-06T12:16:43.085Z,97016.50
2017-12-06T12:19:10.081Z,97020.35
2017-12-06T12:21:37.103Z,97013.73
2017-12-06T12:24:04.110Z,97021.63
2017-12-06T12:26:31.117Z,97015.56
2017-12-06T12:28:58.145Z,97016.14
2017-12-06T12:31:25.140Z,97002.94
2017-12-06T12:33:52.181Z,97005.57
2017-12-06T12:36:19.184Z,96998.92
2017-12-06T12:38:46.214Z,96996.09
2017-12-06T12:41:13.216Z,96994.75
2017-12-06T12:43:40.241Z,96995.84
2017-12-06T12:46:07.246Z,96991.14
2017-12-06T12:48:34.271Z,96991.50
2017-12-06T12:51:01.280Z,96994.03
2017-12-06T12:53:28.296Z,96991.91
2017-12-06T12:55:55.297Z,96982.03
2017-12-06T12:58:22.322Z,96983.80
2017-12-06T13:00:50.111Z,96980.76
2017-12-06T13:03:17.132Z,96982.08
2017-12-06T13:05:44.146Z,96984.18
2017-12-06T13:08:11.157Z,96981.09
2017-12-06T13:10:38.233Z,96982.55
2017-12-06T13:13:05.232Z,96975.36
2017-12-06T13:15:32.248Z,96969.41
2017-12-06T13:17:59.252Z,96961.70
2017-12-06T13:20:26.269Z,96957.80
2017-12-06T13:22:53.269Z,96950.66
2017-12-06T13:25:20.288Z,96953.50
2017-12-06T13:27:47.296Z,96950.84
2017-12-06T13:30:14.312Z,96955.25
2017-12-06T13:32:41.308Z,96950.92
2017-12-06T13:35:08.352Z,96942.43
2017-12-06T13:37:35.349Z,96940.05
2017-12-06T13:40:02.364Z,96941.39
2017-12-06T13:42:29.372Z,96941.91
2017-12-06T13:44:56.414Z,96944.33
2017-12-06T13:47:23.425Z,96938.09
2017-12-06T13:49:50.441Z,96935.23
2017-12-06T13:52:17.444Z,96930.92
2017-12-06T13:54:44.930Z,96945.17
2017-12-06T13:57:12.401Z,96939.09
2017-12-06T13:59:39.890Z,96948.55
2017-12-06T14:02:07.378Z,96948.58
2017-12-06T14:04:34.904Z,96954.27
2017-12-06T14:07:02.406Z,96948.81
2017-12-06T14:09:29.869Z,96945.16
2017-12-06T14:11:57.337Z,96941.18
2017-12-06T14:14:24.828Z,96955.14
2017-12-06T14:16:52.294Z,96949.32
2017-12-06T14:19:19.776Z,96950.63
2017-12-06T14:21:47.241Z,96946.08
2017-12-06T14:24:14.731Z,96944.85
2017-12-06T14:26:42.197Z,96950.74
2017-12-06T14:29:09.683Z,96950.22
2017-12-06T14:31:37.145Z,96952.67
2017-12-06T14:34:04.629Z,96949.08
2017-12-06T14:36:32.096Z,96948.05
2017-12-06T14:38:59.583Z,96952.63
2017-12-06T14:41:27.049Z,96941.41
2017-12-06T14:43:54.537Z,96945.13
2017-12-06T14:46:22.082Z,96940.07
2017-12-06T14:48:49.561Z,96940.34
2017-12-06T14:51:17.025Z,96951.61
2017-12-06T14:53:44.508Z,96945.23
2017-12-06T14:56:11.977Z,96943.73
2017-12-06T14:58:39.456Z,96949.95
2017-12-06T15:01:06.934Z,96949.39
2017-12-06T15:03:34.422Z,96948.25
2017-12-06T15:06:01.888Z,96948.48
2017-12-06T15:08:29.364Z,96947.85
2017-12-06T15:10:56.873Z,96942.15
2017-12-06T15:13:24.344Z,96938.90
2017-12-06T15:15:51.828Z,96940.81
2017-12-06T15:18:19.299Z,96934.30
2017-12-06T15:20:46.814Z,96942.71
2017-12-06T15:23:14.351Z,96942.77
2017-12-06T15:25:41.877Z,96936.75
2017-12-06T15:28:09.388Z,96936.43
2017-12-06T15:30:36.913Z,96935.59
2017-12-06T15:33:04.389Z,96941.52
2017-12-06T15:35:31.945Z,96940.61
2017-12-06T15:38:00.305Z,96936.33
2017-12-06T15:40:27.841Z,96939.02
2017-12-06T15:42:55.317Z,96934.81
2017-12-06T15:45:22.800Z,96938.23
2017-12-06T15:47:50.377Z,96932.83
2017-12-06T15:50:17.869Z,96942.22
2017-12-06T15:52:45.349Z,96934.66
2017-12-06T15:55:12.881Z,96927.44
2017-12-06T15:57:40.349Z,96932.23
2017-12-06T16:00:07.849Z,96936.98
2017-12-06T16:02:35.312Z,96941.96
2017-12-06T16:05:02.885Z,96932.30
2017-12-06T16:07:30.389Z,96940.83
2017-12-06T16:09:57.866Z,96947.92
2017-12-06T16:12:25.340Z,96942.84
2017-12-06T16:14:52.832Z,96940.53
2017-12-06T16:17:20.301Z,96938.42
2017-12-06T16:19:47.785Z,96943.00
2017-12-06T16:22:15.289Z,96943.34
2017-12-06T16:24:42.769Z,96942.89
2017-12-06T16:27:10.293Z,96943.64
2017-12-06T16:29:37.781Z,96943.63
2017-12-06T16:32:05.248Z,96936.17
2017-12-06T16:34:32.746Z,96933.73
2017-12-06T16:37:12.116Z,96937.50
2017-12-06T16:39:39.596Z,96934.08
2017-12-06T16:42:07.065Z,96938.26
2017-12-06T16:44:34.572Z,96931.60
2017-12-06T16:47:02.042Z,96926.23
2017-12-06T16:49:29.524Z,96924.99
2017-12-06T16:51:57.064Z,96921.66
2017-12-06T16:54:24.545Z,96914.95
2017-12-06T16:56:52.014Z,96915.72
2017-12-06T16:59:19.497Z,96917.41
2017-12-06T17:01:46.965Z,96924.05
2017-12-06T17:04:14.430Z,96925.41
2017-12-06T17:06:41.933Z,96915.34
2017-12-06T17:09:09.401Z,96913.20
2017-12-06T17:11:36.865Z,96905.70
2017-12-06T17:14:04.348Z,96904.59
2017-12-06T17:16:31.813Z,96906.22
2017-12-06T17:18:59.295Z,96904.32
2017-12-06T17:21:26.765Z,96904.35
2017-12-06T17:23:54.244Z,96905.78
2017-12-06T17:26:21.716Z,96904.69
2017-12-06T17:29:01.141Z,96913.39
2017-12-06T17:31:40.562Z,96911.14
2017-12-06T17:34:08.025Z,96903.98
2017-12-06T17:36:35.489Z,96901.64
2017-12-06T17:39:02.974Z,96903.88
2017-12-06T17:41:31.443Z,96895.00
2017-12-06T17:43:58.913Z,96895.58
2017-12-06T17:46:26.397Z,96898.70
2017-12-06T17:48:53.863Z,96899.06
2017-12-06T17:51:21.333Z,96894.14
2017-12-06T17:53:48.817Z,96895.15
2017-12-06T17:56:16.299Z,96888.31
2017-12-06T17:58:43.765Z,96892.88
2017-12-06T18:01:11.253Z,96882.53
2017-12-06T18:03:38.722Z,96884.92
2017-12-06T18:06:06.192Z,96885.27
2017-12-06T18:08:33.679Z,96892.53
2017-12-06T18:11:01.148Z,96889.82
2017-12-06T18:13:28.649Z,96884.81
2017-12-06T18:15:56.133Z,96888.04
2017-12-06T18:18:23.619Z,96879.91
2017-12-06T18:20:51.091Z,96880.56
2017-12-06T18:23:18.613Z,96880.47
2017-12-06T18:25:46.081Z,96879.34
2017-12-06T18:28:13.626Z,96879.26
2017-12-06T18:30:41.116Z,96883.98
2017-12-06T18:33:08.613Z,96879.71
2017-12-06T18:35:36.100Z,96883.73
2017-12-06T18:38:03.598Z,96875.98
2017-12-06T18:40:31.060Z,96871.08
2017-12-06T18:42:58.545Z,96873.31
2017-12-06T18:45:26.009Z,96879.43
2017-12-06T18:47:53.537Z,96873.44
2017-12-06T18:50:21.029Z,96877.02
2017-12-06T18:52:48.508Z,96874.88
2017-12-06T18:55:15.973Z,96875.64
2017-12-06T18:57:43.545Z,96876.02
2017-12-06T19:00:11.016Z,96868.17
2017-12-06T19:02:38.481Z,96866.88
2017-12-06T19:05:05.961Z,96869.89
2017-12-06T19:07:33.426Z,96872.55
2017-12-06T19:10:00.922Z,96864.93
2017-12-06T19:12:28.400Z,96863.09
2017-12-06T19:14:55.865Z,96864.86
2017-12-06T19:17:23.349Z,96863.38
2017-12-06T19:19:50.812Z,96860.28
2017-12-06T19:22:18.301Z,96852.17
2017-12-06T19:24:45.777Z,96853.34
2017-12-06T19:27:13.298Z,96856.73
2017-12-06T19:29:40.769Z,96858.72
2017-12-06T19:32:08.254Z,96853.73
2017-12-06T19:34:35.750Z,96848.13
2017-12-06T19:37:03.248Z,96847.95
2017-12-06T19:39:30.725Z,96848.06
2017-12-06T19:41:58.208Z,96845.18
2017-12-06T19:44:25.673Z,96842.09
2017-12-06T19:46:53.161Z,96844.67
2017-12-06T19:49:20.632Z,96847.05
2017-12-06T19:51:48.134Z,96842.29
2017-12-06T19:54:15.617Z,96835.91
2017-12-06T19:56:43.089Z,96839.63
2017-12-06T19:59:10.600Z,96839.61
2017-12-06T20:01:38.066Z,96836.86
2017-12-06T20:04:05.551Z,96837.91
2017-12-06T20:06:33.017Z,96836.31
2017-12-06T20:09:00.498Z,96836.38
2017-12-06T20:11:27.963Z,96835.27
2017-12-06T20:13:55.491Z,96827.84
2017-12-06T20:16:22.933Z,96831.60
2017-12-06T20:18:50.424Z,96836.71
2017-12-06T20:21:17.916Z,96828.39
2017-12-06T20:23:45.422Z,96823.39
2017-12-06T20:26:12.889Z,96824.54
2017-12-06T20:28:40.481Z,96820.61
2017-12-06T20:31:07.945Z,96819.48
2017-12-06T20:33:35.425Z,96805.17
2017-12-06T20:36:02.893Z,96807.63
2017-12-06T20:38:30.377Z,96811.08
2017-12-06T20:40:57.860Z,96811.76
2017-12-06T20:43:25.338Z,96801.67
2017-12-06T20:45:52.801Z,96796.74
2017-12-06T20:48:20.284Z,96792.62
2017-12-06T20:50:47.758Z,96790.83
2017-12-06T20:53:15.240Z,96786.40
2017-12-06T20:55:42.708Z,96783.02
2017-12-06T20:58:10.173Z,96785.92
2017-12-06T21:00:37.660Z,96779.98
2017-12-06T21:03:05.133Z,96782.21
2017-12-06T21:05:33.009Z,96777.94
2017-12-06T21:08:00.797Z,96776.19
2017-12-06T21:10:28.527Z,96777.48
2017-12-06T21:12:56.106Z,96778.38
2017-12-06T21:15:23.577Z,96776.76
2017-12-06T21:17:51.064Z,96771.69
2017-12-06T21:20:18.529Z,96772.77
2017-12-06T21:22:45.997Z,96768.10
2017-12-06T21:25:13.497Z,96767.98
2017-12-06T21:27:40.967Z,96767.94
2017-12-06T21:30:08.457Z,96762.88
2017-12-06T21:32:35.941Z,96761.86
2017-12-06T21:35:03.414Z,96761.87
2017-12-06T21:37:30.880Z,96754.92
2017-12-06T21:39:58.369Z,96756.73
2017-12-06T21:42:25.854Z,96760.23
2017-12-06T21:44:53.349Z,96752.11
2017-12-06T21:47:20.838Z,96749.65
2017-12-06T21:49:48.300Z,96751.86
2017-12-06T21:52:15.769Z,96752.52
2017-12-06T21:54:43.261Z,96749.98
2017-12-06T21:57:10.733Z,96744.42
2017-12-06T21:59:38.197Z,96747.65
2017-12-06T22:02:05.768Z,96747.83
2017-12-06T22:04:33.238Z,96742.89
2017-12-06T22:07:00.727Z,96745.01
2017-12-06T22:09:28.196Z,96742.56
2017-12-06T22:11:55.689Z,96736.73
2017-12-06T22:14:23.163Z,96738.93
2017-12-06T22:16:50.645Z,96741.88
2017-12-06T22:19:18.131Z,96736.94
2017-12-06T22:21:45.602Z,96730.07
2017-12-06T22:24:13.082Z,96728.82
2017-12-06T22:26:40.573Z,96734.09
2017-12-06T22:29:08.049Z,96724.40
2017-12-06T22:31:35.525Z,96726.12
2017-12-06T22:34:03.019Z,96723.93
2017-12-06T22:36:30.486Z,96717.38
2017-12-06T22:38:57.961Z,96713.06
2017-12-06T22:41:25.451Z,96713.18
2017-12-06T22:43:52.925Z,96715.15
2017-12-06T22:46:20.402Z,96710.39
2017-12-06T22:48:47.892Z,96702.91
2017-12-06T22:51:15.360Z,96701.17
2017-12-06T22:53:42.834Z,96699.02
2017-12-06T22:56:10.334Z,96691.84
2017-12-06T22:58:37.809Z,96694.14
2017-12-06T23:01:05.279Z,96689.91
2017-12-06T23:03:32.808Z,96680.48
2017-12-06T23:06:00.279Z,96678.12
2017-12-06T23:08:27.768Z,96675.87
2017-12-06T23:10:55.236Z,96675.14
2017-12-06T23:13:22.730Z,96676.77
2017-12-06T23:15:50.299Z,96674.30
2017-12-06T23:18:17.814Z,96671.73
2017-12-06T23:20:45.276Z,96673.38
2017-12-06T23:23:12.756Z,96672.51
2017-12-06T23:25:40.229Z,96667.77
2017-12-06T23:28:07.717Z,96658.27
2017-12-06T23:30:35.247Z,96661.23
2017-12-06T23:33:02.720Z,96661.55
2017-12-06T23:35:30.217Z,96663.66
2017-12-06T23:37:57.685Z,96658.93
2017-12-06T23:40:25.157Z,96652.67
2017-12-06T23:42:52.649Z,96643.42
2017-12-06T23:45:20.113Z,96642.05
2017-12-06T23:47:47.587Z,96638.88
2017-12-06T23:50:15.081Z,96636.89
2017-12-06T23:52:42.557Z,96628.84
2017-12-06T23:55:10.029Z,96631.46
2017-12-06T23:57:37.519Z,96626.83
